VIR76 KMCO-EGCC
Flight info
| Callsign | VIR76 |
|---|---|
| Flight time | N/A |
| Altitude | 33000 |
| Route | MZULO3 ETECK M202 UKOKA/M085F330 M202 KINER DCT DRYED M201 CARAC/N0502F330 DCT JOOPY/M085F330 DCT 49N050W 51N040W 53N030W 54N020W DCT DOGAL DCT BEXET/N0489F330 DCT BOFUM Q37 MALUD MALUD1M |
| Aircraft | B742/H-SDFHIRWXY/L |
Departure
| Time | N/A |
|---|---|
| Airport | Orlando International Airport (KMCO) |
Arrival
| Time | 2026-05-04 15:26 |
|---|---|
| Airport | Manchester Airport (EGCC) |
| Time | Latitude | Longitude | Altitude | Speed | Heading |
|---|---|---|---|---|---|
| 2026-05-04 14:53 | 53.62283 | -6.48461 | 33050 ft | 457 kts | 95° |
| 2026-05-04 14:53 | 53.61704 | -6.41354 | 33053 ft | 456 kts | 95° |
| 2026-05-04 14:53 | 53.60287 | -6.24749 | 33058 ft | 456 kts | 96° |
| 2026-05-04 14:54 | 53.59307 | -6.13599 | 33058 ft | 454 kts | 95° |
| 2026-05-04 14:54 | 53.58395 | -6.02973 | 33053 ft | 454 kts | 95° |
| 2026-05-04 14:55 | 53.57495 | -5.92474 | 33049 ft | 454 kts | 95° |
| 2026-05-04 14:55 | 53.56587 | -5.81973 | 33054 ft | 454 kts | 95° |
| 2026-05-04 14:56 | 53.56130 | -5.76719 | 33059 ft | 454 kts | 95° |
| 2026-05-04 14:57 | 53.53553 | -5.46554 | 30825 ft | 433 kts | 90° |
| 2026-05-04 14:57 | 53.53420 | -5.41519 | 30388 ft | 431 kts | 89° |
| 2026-05-04 14:58 | 53.53342 | -5.36501 | 29953 ft | 429 kts | 88° |
| 2026-05-04 14:58 | 53.53256 | -5.31533 | 29516 ft | 426 kts | 90° |
| 2026-05-04 14:58 | 53.53134 | -5.26510 | 29076 ft | 422 kts | 90° |
| 2026-05-04 14:58 | 53.53004 | -5.21601 | 28640 ft | 419 kts | 90° |
| 2026-05-04 14:59 | 53.52961 | -5.20010 | 28498 ft | 418 kts | 90° |
| 2026-05-04 14:59 | 53.52440 | -5.02311 | 26913 ft | 408 kts | 90° |
| 2026-05-04 15:00 | 53.52291 | -4.97549 | 26481 ft | 407 kts | 90° |
| 2026-05-04 15:00 | 53.52143 | -4.92852 | 26059 ft | 405 kts | 91° |
| 2026-05-04 15:00 | 53.51993 | -4.88136 | 25637 ft | 402 kts | 91° |
| 2026-05-04 15:01 | 53.51691 | -4.78730 | 24780 ft | 398 kts | 91° |
| 2026-05-04 15:01 | 53.51540 | -4.74089 | 24355 ft | 395 kts | 91° |
| 2026-05-04 15:01 | 53.51387 | -4.69445 | 23937 ft | 394 kts | 91° |
| 2026-05-04 15:01 | 53.51234 | -4.64875 | 23517 ft | 391 kts | 91° |
| 2026-05-04 15:02 | 53.51079 | -4.60291 | 23105 ft | 389 kts | 91° |
| 2026-05-04 15:02 | 53.50924 | -4.55767 | 22686 ft | 388 kts | 91° |
| 2026-05-04 15:02 | 53.50767 | -4.51220 | 22269 ft | 388 kts | 91° |
| 2026-05-04 15:02 | 53.50609 | -4.46705 | 21859 ft | 387 kts | 91° |
| 2026-05-04 15:03 | 53.50451 | -4.42239 | 21450 ft | 384 kts | 91° |
| 2026-05-04 15:03 | 53.50290 | -4.37758 | 21032 ft | 384 kts | 91° |
| 2026-05-04 15:03 | 53.50126 | -4.33279 | 20622 ft | 382 kts | 92° |
| 2026-05-04 15:03 | 53.49940 | -4.28873 | 20210 ft | 381 kts | 93° |
| 2026-05-04 15:04 | 53.49750 | -4.24411 | 19792 ft | 380 kts | 92° |
| 2026-05-04 15:04 | 53.49571 | -4.19948 | 19422 ft | 377 kts | 92° |
| 2026-05-04 15:04 | 53.49401 | -4.15597 | 19092 ft | 376 kts | 92° |
| 2026-05-04 15:04 | 53.49231 | -4.11163 | 18763 ft | 376 kts | 92° |
| 2026-05-04 15:05 | 53.49064 | -4.06827 | 18443 ft | 374 kts | 92° |
| 2026-05-04 15:05 | 53.48894 | -4.02438 | 18115 ft | 374 kts | 92° |
| 2026-05-04 15:05 | 53.48719 | -3.98069 | 17786 ft | 372 kts | 94° |
| 2026-05-04 15:05 | 53.48208 | -3.93804 | 17468 ft | 372 kts | 105° |
| 2026-05-04 15:06 | 53.47398 | -3.89657 | 17147 ft | 373 kts | 108° |
| 2026-05-04 15:06 | 53.46533 | -3.85585 | 16824 ft | 369 kts | 109° |
| 2026-05-04 15:06 | 53.45667 | -3.81517 | 16507 ft | 368 kts | 108° |
| 2026-05-04 15:07 | 53.43979 | -3.73457 | 15878 ft | 364 kts | 108° |
| 2026-05-04 15:07 | 53.43147 | -3.69450 | 15558 ft | 364 kts | 108° |
| 2026-05-04 15:07 | 53.42307 | -3.65408 | 15245 ft | 363 kts | 108° |
| 2026-05-04 15:07 | 53.41510 | -3.61405 | 14933 ft | 360 kts | 103° |
| 2026-05-04 15:08 | 53.41128 | -3.57232 | 14653 ft | 360 kts | 94° |
| 2026-05-04 15:08 | 53.40952 | -3.53032 | 14373 ft | 360 kts | 92° |
| 2026-05-04 15:08 | 53.40805 | -3.48872 | 14091 ft | 359 kts | 92° |
| 2026-05-04 15:08 | 53.40643 | -3.44654 | 13811 ft | 359 kts | 93° |
| 2026-05-04 15:09 | 53.40470 | -3.40523 | 13530 ft | 358 kts | 93° |
| 2026-05-04 15:09 | 53.40288 | -3.36366 | 13219 ft | 356 kts | 93° |
| 2026-05-04 15:09 | 53.40093 | -3.32174 | 12939 ft | 355 kts | 95° |
| 2026-05-04 15:10 | 53.39677 | -3.23967 | 12382 ft | 352 kts | 94° |
| 2026-05-04 15:10 | 53.39485 | -3.19926 | 12067 ft | 351 kts | 94° |
| 2026-05-04 15:10 | 53.39835 | -3.11891 | 11398 ft | 345 kts | 69° |
| 2026-05-04 15:11 | 53.40870 | -3.08303 | 11075 ft | 342 kts | 59° |
| 2026-05-04 15:11 | 53.42076 | -3.04906 | 10747 ft | 340 kts | 58° |
| 2026-05-04 15:11 | 53.43304 | -3.01504 | 10416 ft | 339 kts | 58° |
| 2026-05-04 15:11 | 53.44495 | -2.98149 | 10089 ft | 338 kts | 58° |
| 2026-05-04 15:12 | 53.45689 | -2.94737 | 9757 ft | 336 kts | 59° |
| 2026-05-04 15:12 | 53.46878 | -2.91306 | 9424 ft | 334 kts | 59° |
| 2026-05-04 15:12 | 53.48029 | -2.87981 | 9099 ft | 333 kts | 59° |
| 2026-05-04 15:12 | 53.49209 | -2.84573 | 8763 ft | 331 kts | 59° |
| 2026-05-04 15:13 | 53.50362 | -2.81243 | 8433 ft | 329 kts | 59° |
| 2026-05-04 15:13 | 53.51503 | -2.77937 | 8105 ft | 329 kts | 59° |
| 2026-05-04 15:13 | 53.52640 | -2.74636 | 7778 ft | 327 kts | 59° |
| 2026-05-04 15:13 | 53.53782 | -2.71315 | 7446 ft | 325 kts | 59° |
| 2026-05-04 15:14 | 53.54903 | -2.68065 | 7117 ft | 322 kts | 59° |
| 2026-05-04 15:14 | 53.56028 | -2.64803 | 6783 ft | 321 kts | 59° |
| 2026-05-04 15:14 | 53.57148 | -2.61549 | 6451 ft | 321 kts | 59° |
| 2026-05-04 15:14 | 53.58264 | -2.58307 | 6118 ft | 320 kts | 59° |
| 2026-05-04 15:15 | 53.59368 | -2.55100 | 5788 ft | 317 kts | 59° |
| 2026-05-04 15:15 | 53.60463 | -2.51920 | 5426 ft | 308 kts | 58° |
| 2026-05-04 15:15 | 53.61504 | -2.48886 | 5044 ft | 291 kts | 58° |
| 2026-05-04 15:16 | 53.63416 | -2.43272 | 4518 ft | 257 kts | 58° |
| 2026-05-04 15:16 | 53.64257 | -2.40759 | 4470 ft | 236 kts | 58° |
| 2026-05-04 15:16 | 53.65765 | -2.36002 | 4449 ft | 229 kts | 76° |
| 2026-05-04 15:17 | 53.65702 | -2.33342 | 4463 ft | 233 kts | 113° |
| 2026-05-04 15:17 | 53.63599 | -2.29483 | 4460 ft | 230 kts | 140° |
| 2026-05-04 15:17 | 53.62386 | -2.27768 | 4459 ft | 229 kts | 140° |
| 2026-05-04 15:18 | 53.61152 | -2.26033 | 4325 ft | 234 kts | 140° |
| 2026-05-04 15:18 | 53.59897 | -2.24272 | 3950 ft | 230 kts | 140° |
| 2026-05-04 15:18 | 53.58698 | -2.22592 | 3623 ft | 223 kts | 140° |
| 2026-05-04 15:19 | 53.56659 | -2.19181 | 3475 ft | 201 kts | 122° |
| 2026-05-04 15:19 | 53.55936 | -2.17190 | 3465 ft | 198 kts | 120° |
| 2026-05-04 15:19 | 53.54520 | -2.13218 | 3469 ft | 194 kts | 120° |
| 2026-05-04 15:20 | 53.53814 | -2.11278 | 3459 ft | 196 kts | 126° |
| 2026-05-04 15:20 | 53.52828 | -2.09688 | 3467 ft | 198 kts | 140° |
| 2026-05-04 15:20 | 53.51788 | -2.08223 | 3460 ft | 195 kts | 137° |
| 2026-05-04 15:20 | 53.50848 | -2.06515 | 3315 ft | 201 kts | 130° |
| 2026-05-04 15:21 | 53.49814 | -2.04955 | 2939 ft | 204 kts | 157° |
| 2026-05-04 15:21 | 53.48433 | -2.04716 | 2625 ft | 199 kts | 188° |
| 2026-05-04 15:21 | 53.45986 | -2.05920 | 2469 ft | 173 kts | 222° |
| 2026-05-04 15:22 | 53.45126 | -2.07314 | 2466 ft | 170 kts | 230° |
| 2026-05-04 15:22 | 53.44369 | -2.08790 | 2480 ft | 168 kts | 232° |
| 2026-05-04 15:22 | 53.42912 | -2.11796 | 2343 ft | 167 kts | 233° |
| 2026-05-04 15:23 | 53.42191 | -2.13301 | 2127 ft | 163 kts | 233° |
| 2026-05-04 15:23 | 53.41490 | -2.14762 | 1905 ft | 159 kts | 233° |
| 2026-05-04 15:23 | 53.40805 | -2.16194 | 1712 ft | 159 kts | 233° |
| 2026-05-04 15:23 | 53.40109 | -2.17641 | 1508 ft | 157 kts | 232° |
| 2026-05-04 15:24 | 53.38744 | -2.20467 | 1101 ft | 155 kts | 232° |
| 2026-05-04 15:24 | 53.37402 | -2.23271 | 689 ft | 154 kts | 231° |
| 2026-05-04 15:25 | 53.36735 | -2.24641 | 450 ft | 152 kts | 231° |
| 2026-05-04 15:25 | 53.36087 | -2.26008 | 274 ft | 150 kts | 231° |
| 2026-05-04 15:25 | 53.35474 | -2.27280 | 234 ft | 113 kts | 233° |
| 2026-05-04 15:26 | 53.34983 | -2.28356 | 234 ft | 29 kts | 245° |
| 2026-05-04 15:26 | 53.34942 | -2.28626 | 234 ft | 11 kts | 263° |
| 2026-05-04 15:26 | 53.35015 | -2.28738 | 234 ft | 6 kts | 33° |
| 2026-05-04 15:27 | 53.35046 | -2.28685 | 234 ft | 6 kts | 49° |
| 2026-05-04 15:27 | 53.35098 | -2.28577 | 234 ft | 5 kts | 52° |
| 2026-05-04 15:28 | 53.35194 | -2.28374 | 234 ft | 16 kts | 51° |
| 2026-05-04 15:28 | 53.35268 | -2.28227 | 234 ft | 16 kts | 44° |
| 2026-05-04 15:28 | 53.35426 | -2.27969 | 234 ft | 15 kts | 43° |
| 2026-05-04 15:29 | 53.35519 | -2.27904 | 234 ft | 14 kts | 15° |
| 2026-05-04 15:30 | 53.35812 | -2.27861 | 234 ft | 9 kts | 7° |
| 2026-05-04 15:30 | 53.36048 | -2.27994 | 234 ft | 13 kts | 315° |
| 2026-05-04 15:31 | 53.36187 | -2.28119 | 234 ft | 10 kts | 15° |
| 2026-05-04 15:31 | 53.36262 | -2.28077 | 234 ft | 12 kts | 21° |
| 2026-05-04 15:32 | 53.36452 | -2.27782 | 234 ft | 4 kts | 44° |
| 2026-05-04 15:32 | 53.36456 | -2.27776 | 234 ft | 0 kts | 45° |